sensor_id;sensor_type;location;lat;lon;timestamp;temperature;humidity
1075;DHT22;526;51.392;12.448;2023-08-12T04:01:50;18.10;97.30
1075;DHT22;526;51.392;12.448;2023-08-12T04:04:16;18.10;97.30
1075;DHT22;526;51.392;12.448;2023-08-12T04:06:44;18.10;97.30
1075;DHT22;526;51.392;12.448;2023-08-12T04:09:09;18.10;97.30
1075;DHT22;526;51.392;12.448;2023-08-12T04:11:39;18.10;97.30
1075;DHT22;526;51.392;12.448;2023-08-12T04:14:05;18.10;97.30
1075;DHT22;526;51.392;12.448;2023-08-12T04:16:30;18.10;97.30
1075;DHT22;526;51.392;12.448;2023-08-12T04:18:56;18.10;97.30
1075;DHT22;526;51.392;12.448;2023-08-12T04:21:22;18.10;97.30
1075;DHT22;526;51.392;12.448;2023-08-12T04:23:48;18.10;97.30
1075;DHT22;526;51.392;12.448;2023-08-12T04:26:13;18.20;97.30
1075;DHT22;526;51.392;12.448;2023-08-12T04:28:39;18.20;97.30
1075;DHT22;526;51.392;12.448;2023-08-12T04:31:06;18.20;97.30
1075;DHT22;526;51.392;12.448;2023-08-12T04:33:33;18.20;97.30
1075;DHT22;526;51.392;12.448;2023-08-12T04:35:59;18.20;97.30
1075;DHT22;526;51.392;12.448;2023-08-12T04:38:25;18.30;97.30
1075;DHT22;526;51.392;12.448;2023-08-12T04:40:55;18.30;97.30
1075;DHT22;526;51.392;12.448;2023-08-12T04:43:20;18.30;97.30
1075;DHT22;526;51.392;12.448;2023-08-12T04:45:46;18.30;97.30
1075;DHT22;526;51.392;12.448;2023-08-12T04:48:12;18.30;97.30
1075;DHT22;526;51.392;12.448;2023-08-12T04:50:38;18.30;97.30
1075;DHT22;526;51.392;12.448;2023-08-12T04:53:07;18.40;97.30
1075;DHT22;526;51.392;12.448;2023-08-12T04:55:34;18.40;97.30
1075;DHT22;526;51.392;12.448;2023-08-12T04:58:02;18.40;97.30
1075;DHT22;526;51.392;12.448;2023-08-12T05:00:31;18.40;97.30
1075;DHT22;526;51.392;12.448;2023-08-12T05:03:04;18.40;97.30
1075;DHT22;526;51.392;12.448;2023-08-12T05:05:32;18.50;97.30
1075;DHT22;526;51.392;12.448;2023-08-12T05:08:03;18.50;97.30
1075;DHT22;526;51.392;12.448;2023-08-12T05:10:32;18.50;97.30
1075;DHT22;526;51.392;12.448;2023-08-12T05:13:04;18.60;97.30
1075;DHT22;526;51.392;12.448;2023-08-12T05:15:33;18.60;97.30
1075;DHT22;526;51.392;12.448;2023-08-12T05:18:01;18.70;97.30
1075;DHT22;526;51.392;12.448;2023-08-12T05:20:30;18.70;97.30
1075;DHT22;526;51.392;12.448;2023-08-12T05:23:20;18.80;97.30
1075;DHT22;526;51.392;12.448;2023-08-12T05:26:10;18.80;97.30
1075;DHT22;526;51.392;12.448;2023-08-12T05:28:52;18.90;97.30
1075;DHT22;526;51.392;12.448;2023-08-12T05:31:33;18.90;97.30
1075;DHT22;526;51.392;12.448;2023-08-12T05:34:33;18.90;97.30
1075;DHT22;526;51.392;12.448;2023-08-12T05:37:01;19.00;97.30
1075;DHT22;526;51.392;12.448;2023-08-12T05:39:33;19.10;97.30
1075;DHT22;526;51.392;12.448;2023-08-12T05:41:58;19.10;97.30
1075;DHT22;526;51.392;12.448;2023-08-12T05:44:24;19.10;97.30
1075;DHT22;526;51.392;12.448;2023-08-12T05:46:49;19.20;97.30
1075;DHT22;526;51.392;12.448;2023-08-12T05:49:15;19.20;97.30
1075;DHT22;526;51.392;12.448;2023-08-12T05:51:41;19.30;97.30
1075;DHT22;526;51.392;12.448;2023-08-12T05:54:07;19.40;97.30
1075;DHT22;526;51.392;12.448;2023-08-12T05:56:32;19.40;97.30
1075;DHT22;526;51.392;12.448;2023-08-12T05:58:58;19.50;97.30
1075;DHT22;526;51.392;12.448;2023-08-12T06:01:23;19.60;97.30
1075;DHT22;526;51.392;12.448;2023-08-12T06:03:49;19.70;97.30
1075;DHT22;526;51.392;12.448;2023-08-12T06:06:14;19.80;97.30
1075;DHT22;526;51.392;12.448;2023-08-12T06:08:40;20.00;97.30
1075;DHT22;526;51.392;12.448;2023-08-12T06:11:06;20.10;97.30
1075;DHT22;526;51.392;12.448;2023-08-12T06:13:31;20.30;97.30
1075;DHT22;526;51.392;12.448;2023-08-12T06:15:57;20.40;97.30
1075;DHT22;526;51.392;12.448;2023-08-12T06:18:22;20.60;97.30
1075;DHT22;526;51.392;12.448;2023-08-12T06:20:48;20.70;97.30
1075;DHT22;526;51.392;12.448;2023-08-12T06:23:15;20.80;97.30
1075;DHT22;526;51.392;12.448;2023-08-12T06:25:40;20.90;97.30
1075;DHT22;526;51.392;12.448;2023-08-12T06:28:08;20.90;97.30
1075;DHT22;526;51.392;12.448;2023-08-12T06:30:34;21.00;97.30
1075;DHT22;526;51.392;12.448;2023-08-12T06:33:00;21.10;97.30
1075;DHT22;526;51.392;12.448;2023-08-12T06:35:25;21.10;97.30
1075;DHT22;526;51.392;12.448;2023-08-12T06:37:51;21.20;97.30
1075;DHT22;526;51.392;12.448;2023-08-12T06:40:17;21.20;97.30
1075;DHT22;526;51.392;12.448;2023-08-12T06:42:42;21.20;97.30
1075;DHT22;526;51.392;12.448;2023-08-12T06:45:08;21.30;97.30
1075;DHT22;526;51.392;12.448;2023-08-12T06:47:34;21.30;97.30
1075;DHT22;526;51.392;12.448;2023-08-12T06:50:00;21.40;97.30
1075;DHT22;526;51.392;12.448;2023-08-12T06:52:25;21.40;97.30
1075;DHT22;526;51.392;12.448;2023-08-12T06:54:51;21.50;97.30
1075;DHT22;526;51.392;12.448;2023-08-12T06:57:16;21.50;97.30
1075;DHT22;526;51.392;12.448;2023-08-12T06:59:42;21.60;97.30
1075;DHT22;526;51.392;12.448;2023-08-12T07:02:08;21.60;97.30
1075;DHT22;526;51.392;12.448;2023-08-12T07:04:33;21.60;97.30
1075;DHT22;526;51.392;12.448;2023-08-12T07:06:59;21.70;97.30
1075;DHT22;526;51.392;12.448;2023-08-12T07:09:25;21.70;97.30
1075;DHT22;526;51.392;12.448;2023-08-12T07:11:50;21.80;97.30
1075;DHT22;526;51.392;12.448;2023-08-12T07:14:16;21.80;97.30
1075;DHT22;526;51.392;12.448;2023-08-12T07:16:42;21.80;97.30
1075;DHT22;526;51.392;12.448;2023-08-12T07:19:08;21.90;97.30
1075;DHT22;526;51.392;12.448;2023-08-12T07:21:33;21.90;97.30
1075;DHT22;526;51.392;12.448;2023-08-12T07:23:59;22.00;97.30
1075;DHT22;526;51.392;12.448;2023-08-12T07:26:24;22.00;97.30
1075;DHT22;526;51.392;12.448;2023-08-12T07:28:50;22.00;97.30
1075;DHT22;526;51.392;12.448;2023-08-12T07:31:15;22.10;97.30
1075;DHT22;526;51.392;12.448;2023-08-12T07:33:41;22.10;97.30
1075;DHT22;526;51.392;12.448;2023-08-12T07:36:06;22.10;97.30
1075;DHT22;526;51.392;12.448;2023-08-12T07:38:32;22.20;97.30
1075;DHT22;526;51.392;12.448;2023-08-12T07:40:57;22.20;97.30
1075;DHT22;526;51.392;12.448;2023-08-12T07:43:23;22.20;97.30
1075;DHT22;526;51.392;12.448;2023-08-12T07:45:53;22.30;97.30
1075;DHT22;526;51.392;12.448;2023-08-12T07:48:19;22.30;97.30
1075;DHT22;526;51.392;12.448;2023-08-12T07:50:45;22.40;97.30
1075;DHT22;526;51.392;12.448;2023-08-12T07:53:14;22.40;97.30
1075;DHT22;526;51.392;12.448;2023-08-12T07:55:40;22.50;97.30
1075;DHT22;526;51.392;12.448;2023-08-12T07:58:06;22.50;97.30
1075;DHT22;526;51.392;12.448;2023-08-12T08:00:32;22.50;97.30
1075;DHT22;526;51.392;12.448;2023-08-12T08:02:58;22.50;97.30
1075;DHT22;526;51.392;12.448;2023-08-12T08:05:24;22.60;97.30
1075;DHT22;526;51.392;12.448;2023-08-12T08:07:49;22.60;97.30
1075;DHT22;526;51.392;12.448;2023-08-12T08:10:15;22.60;97.30
1075;DHT22;526;51.392;12.448;2023-08-12T08:12:40;22.60;97.30
1075;DHT22;526;51.392;12.448;2023-08-12T08:15:06;22.60;97.30
1075;DHT22;526;51.392;12.448;2023-08-12T08:17:32;22.70;97.30
1075;DHT22;526;51.392;12.448;2023-08-12T08:19:58;22.70;97.30
1075;DHT22;526;51.392;12.448;2023-08-12T08:22:23;22.70;97.30
1075;DHT22;526;51.392;12.448;2023-08-12T08:24:49;22.70;97.30
1075;DHT22;526;51.392;12.448;2023-08-12T08:27:14;22.70;97.30
1075;DHT22;526;51.392;12.448;2023-08-12T08:29:40;22.70;97.30
1075;DHT22;526;51.392;12.448;2023-08-12T08:32:06;22.80;97.30
1075;DHT22;526;51.392;12.448;2023-08-12T08:34:31;22.80;97.30
1075;DHT22;526;51.392;12.448;2023-08-12T08:36:57;22.80;97.30
1075;DHT22;526;51.392;12.448;2023-08-12T08:39:23;22.80;97.30
1075;DHT22;526;51.392;12.448;2023-08-12T08:41:48;22.80;97.30
1075;DHT22;526;51.392;12.448;2023-08-12T08:44:14;22.80;97.30
1075;DHT22;526;51.392;12.448;2023-08-12T08:46:41;22.80;97.30
1075;DHT22;526;51.392;12.448;2023-08-12T08:49:09;22.80;97.30
1075;DHT22;526;51.392;12.448;2023-08-12T08:51:35;22.80;97.30
1075;DHT22;526;51.392;12.448;2023-08-12T08:54:04;22.80;97.30
1075;DHT22;526;51.392;12.448;2023-08-12T08:56:31;22.80;97.30
1075;DHT22;526;51.392;12.448;2023-08-12T08:58:58;22.80;97.30
1075;DHT22;526;51.392;12.448;2023-08-12T09:01:23;22.80;97.30
1075;DHT22;526;51.392;12.448;2023-08-12T09:03:51;22.80;97.30
1075;DHT22;526;51.392;12.448;2023-08-12T09:06:20;22.80;97.30
1075;DHT22;526;51.392;12.448;2023-08-12T09:08:47;22.80;97.30
1075;DHT22;526;51.392;12.448;2023-08-12T09:11:14;22.80;97.30
1075;DHT22;526;51.392;12.448;2023-08-12T09:13:41;22.80;97.30
1075;DHT22;526;51.392;12.448;2023-08-12T09:16:07;22.80;97.30
1075;DHT22;526;51.392;12.448;2023-08-12T09:18:32;22.80;97.30
1075;DHT22;526;51.392;12.448;2023-08-12T09:20:58;22.80;97.30
1075;DHT22;526;51.392;12.448;2023-08-12T09:23:26;22.90;97.30
1075;DHT22;526;51.392;12.448;2023-08-12T09:25:52;22.90;97.30
1075;DHT22;526;51.392;12.448;2023-08-12T09:28:18;22.90;97.30
1075;DHT22;526;51.392;12.448;2023-08-12T09:30:50;23.00;97.30
1075;DHT22;526;51.392;12.448;2023-08-12T09:33:24;23.00;97.30
1075;DHT22;526;51.392;12.448;2023-08-12T09:35:50;23.00;97.30
1075;DHT22;526;51.392;12.448;2023-08-12T09:38:16;23.10;97.30
1075;DHT22;526;51.392;12.448;2023-08-12T09:40:42;23.10;97.30
1075;DHT22;526;51.392;12.448;2023-08-12T09:43:08;23.20;97.30
1075;DHT22;526;51.392;12.448;2023-08-12T09:45:34;23.20;97.30
1075;DHT22;526;51.392;12.448;2023-08-12T09:48:00;23.30;97.30
1075;DHT22;526;51.392;12.448;2023-08-12T09:50:27;23.40;97.30
1075;DHT22;526;51.392;12.448;2023-08-12T09:52:54;23.40;97.30
1075;DHT22;526;51.392;12.448;2023-08-12T09:55:22;23.50;97.30
1075;DHT22;526;51.392;12.448;2023-08-12T09:57:51;23.60;97.30
1075;DHT22;526;51.392;12.448;2023-08-12T10:00:21;23.70;97.30
1075;DHT22;526;51.392;12.448;2023-08-12T10:02:49;23.80;97.30
1075;DHT22;526;51.392;12.448;2023-08-12T10:05:21;23.90;97.30
1075;DHT22;526;51.392;12.448;2023-08-12T10:07:47;24.00;97.30
1075;DHT22;526;51.392;12.448;2023-08-12T10:10:14;24.10;97.30
1075;DHT22;526;51.392;12.448;2023-08-12T10:12:41;24.20;97.10
1075;DHT22;526;51.392;12.448;2023-08-12T10:15:07;24.20;97.30
1075;DHT22;526;51.392;12.448;2023-08-12T10:17:34;24.30;97.30
1075;DHT22;526;51.392;12.448;2023-08-12T10:20:03;24.30;97.30
1075;DHT22;526;51.392;12.448;2023-08-12T10:22:30;24.40;97.00
1075;DHT22;526;51.392;12.448;2023-08-12T10:24:59;24.40;97.00
1075;DHT22;526;51.392;12.448;2023-08-12T10:27:26;24.50;97.10
1075;DHT22;526;51.392;12.448;2023-08-12T10:29:52;24.50;95.90
1075;DHT22;526;51.392;12.448;2023-08-12T10:32:17;24.50;96.10
1075;DHT22;526;51.392;12.448;2023-08-12T10:34:43;24.50;96.50
1075;DHT22;526;51.392;12.448;2023-08-12T10:37:10;24.50;96.60
1075;DHT22;526;51.392;12.448;2023-08-12T10:39:36;24.50;96.40
1075;DHT22;526;51.392;12.448;2023-08-12T10:42:02;24.50;95.70
1075;DHT22;526;51.392;12.448;2023-08-12T10:44:50;24.50;95.90
1075;DHT22;526;51.392;12.448;2023-08-12T10:47:16;24.50;95.40
1075;DHT22;526;51.392;12.448;2023-08-12T10:49:53;24.50;95.70
1075;DHT22;526;51.392;12.448;2023-08-12T10:52:37;24.50;95.40
1075;DHT22;526;51.392;12.448;2023-08-12T10:57:47;24.40;95.30
1075;DHT22;526;51.392;12.448;2023-08-12T11:00:20;24.50;96.10
1075;DHT22;526;51.392;12.448;2023-08-12T11:02:52;24.50;96.30
1075;DHT22;526;51.392;12.448;2023-08-12T11:05:19;24.40;96.50
1075;DHT22;526;51.392;12.448;2023-08-12T11:08:00;24.40;96.70
1075;DHT22;526;51.392;12.448;2023-08-12T11:10:30;24.40;97.20
1075;DHT22;526;51.392;12.448;2023-08-12T11:12:57;24.30;97.30
1075;DHT22;526;51.392;12.448;2023-08-12T11:18:03;24.20;97.30
1075;DHT22;526;51.392;12.448;2023-08-12T11:20:30;24.10;97.30
1075;DHT22;526;51.392;12.448;2023-08-12T11:22:56;24.10;97.30
1075;DHT22;526;51.392;12.448;2023-08-12T11:25:24;24.00;97.30
1075;DHT22;526;51.392;12.448;2023-08-12T11:27:49;24.00;97.30
1075;DHT22;526;51.392;12.448;2023-08-12T11:30:17;24.00;97.30
1075;DHT22;526;51.392;12.448;2023-08-12T11:32:47;24.00;97.30
1075;DHT22;526;51.392;12.448;2023-08-12T11:35:14;24.00;97.30
1075;DHT22;526;51.392;12.448;2023-08-12T11:37:41;24.10;97.30
1075;DHT22;526;51.392;12.448;2023-08-12T11:40:08;24.10;97.30
1075;DHT22;526;51.392;12.448;2023-08-12T11:42:39;24.20;97.30
1075;DHT22;526;51.392;12.448;2023-08-12T11:45:06;24.20;97.30
1075;DHT22;526;51.392;12.448;2023-08-12T11:47:32;24.20;97.30
1075;DHT22;526;51.392;12.448;2023-08-12T11:49:58;24.30;97.30
1075;DHT22;526;51.392;12.448;2023-08-12T11:52:24;24.40;97.30
1075;DHT22;526;51.392;12.448;2023-08-12T11:54:50;24.50;97.30
1075;DHT22;526;51.392;12.448;2023-08-12T11:57:16;24.60;97.30
1075;DHT22;526;51.392;12.448;2023-08-12T11:59:42;24.80;97.30
1075;DHT22;526;51.392;12.448;2023-08-12T12:02:10;24.90;97.30
1075;DHT22;526;51.392;12.448;2023-08-12T12:04:36;25.10;97.30
1075;DHT22;526;51.392;12.448;2023-08-12T12:07:01;25.20;97.30
1075;DHT22;526;51.392;12.448;2023-08-12T12:09:32;25.40;97.30
1075;DHT22;526;51.392;12.448;2023-08-12T12:11:57;25.50;97.30
1075;DHT22;526;51.392;12.448;2023-08-12T12:14:24;25.60;97.30
1075;DHT22;526;51.392;12.448;2023-08-12T12:16:50;25.70;97.30
1075;DHT22;526;51.392;12.448;2023-08-12T12:19:23;25.90;96.00
1075;DHT22;526;51.392;12.448;2023-08-12T12:21:53;26.20;94.60
1075;DHT22;526;51.392;12.448;2023-08-12T12:24:19;26.40;94.30
1075;DHT22;526;51.392;12.448;2023-08-12T12:26:46;26.60;94.50
1075;DHT22;526;51.392;12.448;2023-08-12T12:29:14;26.80;92.20
1075;DHT22;526;51.392;12.448;2023-08-12T12:31:41;27.10;93.40
1075;DHT22;526;51.392;12.448;2023-08-12T12:34:07;27.30;91.50
1075;DHT22;526;51.392;12.448;2023-08-12T12:36:35;27.60;90.40
1075;DHT22;526;51.392;12.448;2023-08-12T12:39:02;27.80;89.80
1075;DHT22;526;51.392;12.448;2023-08-12T12:41:28;28.00;88.90
1075;DHT22;526;51.392;12.448;2023-08-12T12:43:53;28.20;89.90
1075;DHT22;526;51.392;12.448;2023-08-12T12:46:19;28.50;89.20
1075;DHT22;526;51.392;12.448;2023-08-12T12:48:44;28.70;87.00
1075;DHT22;526;51.392;12.448;2023-08-12T12:51:11;28.90;83.60
1075;DHT22;526;51.392;12.448;2023-08-12T12:53:37;28.80;84.50
1075;DHT22;526;51.392;12.448;2023-08-12T12:56:03;28.90;84.10
1075;DHT22;526;51.392;12.448;2023-08-12T12:58:33;28.90;83.60
1075;DHT22;526;51.392;12.448;2023-08-12T13:00:59;28.90;85.00
1075;DHT22;526;51.392;12.448;2023-08-12T13:03:25;28.80;83.10
1075;DHT22;526;51.392;12.448;2023-08-12T13:05:51;28.70;81.90
1075;DHT22;526;51.392;12.448;2023-08-12T13:08:17;28.60;82.60
1075;DHT22;526;51.392;12.448;2023-08-12T13:10:42;28.50;81.70
1075;DHT22;526;51.392;12.448;2023-08-12T13:13:08;28.60;83.00
1075;DHT22;526;51.392;12.448;2023-08-12T13:15:34;28.60;82.80
1075;DHT22;526;51.392;12.448;2023-08-12T13:18:00;28.60;84.20
1075;DHT22;526;51.392;12.448;2023-08-12T13:20:25;28.70;84.40
1075;DHT22;526;51.392;12.448;2023-08-12T13:22:51;28.70;85.10
1075;DHT22;526;51.392;12.448;2023-08-12T13:25:17;29.00;84.60
1075;DHT22;526;51.392;12.448;2023-08-12T13:27:42;29.30;84.40
1075;DHT22;526;51.392;12.448;2023-08-12T13:30:08;29.50;84.90
1075;DHT22;526;51.392;12.448;2023-08-12T13:32:36;29.70;85.40
1075;DHT22;526;51.392;12.448;2023-08-12T13:35:02;29.80;82.90
1075;DHT22;526;51.392;12.448;2023-08-12T13:37:28;29.70;82.50
1075;DHT22;526;51.392;12.448;2023-08-12T13:39:53;29.60;82.60
1075;DHT22;526;51.392;12.448;2023-08-12T13:42:19;29.50;84.30
1075;DHT22;526;51.392;12.448;2023-08-12T13:44:44;29.40;83.00
1075;DHT22;526;51.392;12.448;2023-08-12T13:47:10;29.40;83.60
1075;DHT22;526;51.392;12.448;2023-08-12T13:49:36;29.30;84.50
1075;DHT22;526;51.392;12.448;2023-08-12T13:52:01;29.30;84.10
1075;DHT22;526;51.392;12.448;2023-08-12T13:54:28;29.30;84.30
1075;DHT22;526;51.392;12.448;2023-08-12T13:56:53;29.20;85.60
1075;DHT22;526;51.392;12.448;2023-08-12T13:59:19;29.10;84.90
1075;DHT22;526;51.392;12.448;2023-08-12T14:01:45;29.00;84.20
1075;DHT22;526;51.392;12.448;2023-08-12T14:04:10;29.00;84.20
1075;DHT22;526;51.392;12.448;2023-08-12T14:06:36;28.90;83.80
1075;DHT22;526;51.392;12.448;2023-08-12T14:09:02;28.90;83.90
1075;DHT22;526;51.392;12.448;2023-08-12T14:11:27;28.90;85.40
1075;DHT22;526;51.392;12.448;2023-08-12T14:13:53;28.90;86.20
1075;DHT22;526;51.392;12.448;2023-08-12T14:16:19;28.90;85.80
1075;DHT22;526;51.392;12.448;2023-08-12T14:18:44;28.90;86.00
1075;DHT22;526;51.392;12.448;2023-08-12T14:21:10;29.00;85.60
1075;DHT22;526;51.392;12.448;2023-08-12T14:23:35;29.00;86.00
1075;DHT22;526;51.392;12.448;2023-08-12T14:26:01;29.20;86.50
1075;DHT22;526;51.392;12.448;2023-08-12T14:28:26;29.40;86.00
1075;DHT22;526;51.392;12.448;2023-08-12T14:30:53;29.60;86.60
1075;DHT22;526;51.392;12.448;2023-08-12T14:33:19;29.80;86.20
1075;DHT22;526;51.392;12.448;2023-08-12T14:35:45;30.00;85.40
1075;DHT22;526;51.392;12.448;2023-08-12T14:38:10;30.00;85.10
1075;DHT22;526;51.392;12.448;2023-08-12T14:40:36;30.00;84.40
1075;DHT22;526;51.392;12.448;2023-08-12T14:43:01;30.00;83.70
1075;DHT22;526;51.392;12.448;2023-08-12T14:45:27;29.90;85.40
1075;DHT22;526;51.392;12.448;2023-08-12T14:47:52;29.90;84.30
1075;DHT22;526;51.392;12.448;2023-08-12T14:50:18;29.80;84.10
1075;DHT22;526;51.392;12.448;2023-08-12T14:52:44;29.80;84.50
1075;DHT22;526;51.392;12.448;2023-08-12T14:55:09;29.70;84.30
1075;DHT22;526;51.392;12.448;2023-08-12T14:57:35;29.60;84.50
1075;DHT22;526;51.392;12.448;2023-08-12T15:00:01;29.60;84.80
1075;DHT22;526;51.392;12.448;2023-08-12T15:02:27;29.50;85.60
1075;DHT22;526;51.392;12.448;2023-08-12T15:04:53;29.40;85.40
1075;DHT22;526;51.392;12.448;2023-08-12T15:07:19;29.30;86.00
1075;DHT22;526;51.392;12.448;2023-08-12T15:09:46;29.30;87.90
1075;DHT22;526;51.392;12.448;2023-08-12T15:12:11;29.20;86.10
1075;DHT22;526;51.392;12.448;2023-08-12T15:14:37;29.10;87.10
1075;DHT22;526;51.392;12.448;2023-08-12T15:17:03;29.10;88.00
1075;DHT22;526;51.392;12.448;2023-08-12T15:19:28;29.00;88.50
1075;DHT22;526;51.392;12.448;2023-08-12T15:21:54;29.00;89.40
1075;DHT22;526;51.392;12.448;2023-08-12T15:24:19;28.90;90.70
1075;DHT22;526;51.392;12.448;2023-08-12T15:26:45;28.80;89.30
1075;DHT22;526;51.392;12.448;2023-08-12T15:29:11;28.70;89.40
1075;DHT22;526;51.392;12.448;2023-08-12T15:31:36;28.60;89.10
1075;DHT22;526;51.392;12.448;2023-08-12T15:34:03;28.60;89.60
1075;DHT22;526;51.392;12.448;2023-08-12T15:36:28;28.50;90.40
1075;DHT22;526;51.392;12.448;2023-08-12T15:38:54;28.40;91.30
1075;DHT22;526;51.392;12.448;2023-08-12T15:41:20;28.40;90.80
1075;DHT22;526;51.392;12.448;2023-08-12T15:43:47;28.30;91.10
1075;DHT22;526;51.392;12.448;2023-08-12T15:46:12;28.20;91.30
1075;DHT22;526;51.392;12.448;2023-08-12T15:48:38;28.20;91.20
1075;DHT22;526;51.392;12.448;2023-08-12T15:51:04;28.10;90.90
1075;DHT22;526;51.392;12.448;2023-08-12T15:53:29;28.10;89.90
1075;DHT22;526;51.392;12.448;2023-08-12T15:55:55;28.00;89.10
1075;DHT22;526;51.392;12.448;2023-08-12T15:58:20;28.00;89.30
1075;DHT22;526;51.392;12.448;2023-08-12T16:00:47;27.90;89.80
1075;DHT22;526;51.392;12.448;2023-08-12T16:03:14;27.90;92.10
1075;DHT22;526;51.392;12.448;2023-08-12T16:05:41;27.80;92.30
1075;DHT22;526;51.392;12.448;2023-08-12T16:08:07;27.70;93.90
1075;DHT22;526;51.392;12.448;2023-08-12T16:10:34;27.50;93.30
1075;DHT22;526;51.392;12.448;2023-08-12T16:13:00;27.40;95.50
1075;DHT22;526;51.392;12.448;2023-08-12T16:15:26;27.20;96.30
1075;DHT22;526;51.392;12.448;2023-08-12T16:17:51;27.10;97.30
1075;DHT22;526;51.392;12.448;2023-08-12T16:20:17;26.90;97.30
1075;DHT22;526;51.392;12.448;2023-08-12T16:22:42;26.60;97.30
1075;DHT22;526;51.392;12.448;2023-08-12T16:25:08;26.40;97.30
1075;DHT22;526;51.392;12.448;2023-08-12T16:27:34;26.20;97.30
1075;DHT22;526;51.392;12.448;2023-08-12T16:29:59;25.80;97.30
1075;DHT22;526;51.392;12.448;2023-08-12T16:32:25;25.50;97.30
1075;DHT22;526;51.392;12.448;2023-08-12T16:34:50;25.30;97.30
1075;DHT22;526;51.392;12.448;2023-08-12T16:37:16;25.10;97.30
1075;DHT22;526;51.392;12.448;2023-08-12T16:39:41;24.90;97.30
1075;DHT22;526;51.392;12.448;2023-08-12T16:42:07;24.80;97.30
1075;DHT22;526;51.392;12.448;2023-08-12T16:44:32;24.70;97.30
1075;DHT22;526;51.392;12.448;2023-08-12T16:46:58;24.60;97.30
1075;DHT22;526;51.392;12.448;2023-08-12T16:49:23;24.60;97.30
1075;DHT22;526;51.392;12.448;2023-08-12T16:51:49;24.60;97.30
1075;DHT22;526;51.392;12.448;2023-08-12T16:54:15;24.50;97.30
1075;DHT22;526;51.392;12.448;2023-08-12T16:56:41;24.50;97.30
1075;DHT22;526;51.392;12.448;2023-08-12T16:59:07;24.50;97.30
1075;DHT22;526;51.392;12.448;2023-08-12T17:01:33;24.50;97.30
1075;DHT22;526;51.392;12.448;2023-08-12T17:03:58;24.80;97.30
1075;DHT22;526;51.392;12.448;2023-08-12T17:06:25;25.00;97.30
1075;DHT22;526;51.392;12.448;2023-08-12T17:08:50;25.20;97.30
1075;DHT22;526;51.392;12.448;2023-08-12T17:11:16;25.40;97.30
1075;DHT22;526;51.392;12.448;2023-08-12T17:13:42;25.50;97.30
1075;DHT22;526;51.392;12.448;2023-08-12T17:16:07;25.40;97.30
1075;DHT22;526;51.392;12.448;2023-08-12T17:18:33;25.40;97.30
1075;DHT22;526;51.392;12.448;2023-08-12T17:20:58;25.30;97.30
1075;DHT22;526;51.392;12.448;2023-08-12T17:23:25;25.20;97.30
1075;DHT22;526;51.392;12.448;2023-08-12T17:25:50;25.00;97.30
1075;DHT22;526;51.392;12.448;2023-08-12T17:28:16;24.90;97.30
1075;DHT22;526;51.392;12.448;2023-08-12T17:30:41;24.70;97.30
1075;DHT22;526;51.392;12.448;2023-08-12T17:33:07;24.60;97.30
1075;DHT22;526;51.392;12.448;2023-08-12T17:35:32;24.50;97.30
1075;DHT22;526;51.392;12.448;2023-08-12T17:37:58;24.40;97.30
1075;DHT22;526;51.392;12.448;2023-08-12T17:40:24;24.30;97.30
1075;DHT22;526;51.392;12.448;2023-08-12T17:42:49;24.20;97.30
1075;DHT22;526;51.392;12.448;2023-08-12T17:45:15;24.20;97.30
1075;DHT22;526;51.392;12.448;2023-08-12T17:47:56;24.10;97.30
1075;DHT22;526;51.392;12.448;2023-08-12T17:50:22;24.10;97.30
1075;DHT22;526;51.392;12.448;2023-08-12T17:52:48;24.10;97.30
1075;DHT22;526;51.392;12.448;2023-08-12T17:55:13;24.00;97.30
1075;DHT22;526;51.392;12.448;2023-08-12T17:57:39;24.00;97.30
1075;DHT22;526;51.392;12.448;2023-08-12T18:00:05;23.90;97.30
1075;DHT22;526;51.392;12.448;2023-08-12T18:02:31;23.90;97.30
1075;DHT22;526;51.392;12.448;2023-08-12T18:04:56;23.80;97.30
1075;DHT22;526;51.392;12.448;2023-08-12T18:07:22;23.80;97.30
1075;DHT22;526;51.392;12.448;2023-08-12T18:09:48;23.80;97.30
1075;DHT22;526;51.392;12.448;2023-08-12T18:12:13;23.70;97.30
1075;DHT22;526;51.392;12.448;2023-08-12T18:14:39;23.70;97.30
1075;DHT22;526;51.392;12.448;2023-08-12T18:17:04;23.70;97.30
1075;DHT22;526;51.392;12.448;2023-08-12T18:19:30;23.70;97.30
1075;DHT22;526;51.392;12.448;2023-08-12T18:21:55;23.70;97.30
1075;DHT22;526;51.392;12.448;2023-08-12T18:24:21;23.60;97.30
1075;DHT22;526;51.392;12.448;2023-08-12T18:26:47;23.60;97.30
1075;DHT22;526;51.392;12.448;2023-08-12T18:29:12;23.60;97.30
1075;DHT22;526;51.392;12.448;2023-08-12T18:31:38;23.50;97.30
1075;DHT22;526;51.392;12.448;2023-08-12T18:34:05;23.50;97.30
1075;DHT22;526;51.392;12.448;2023-08-12T18:36:30;23.40;97.30
1075;DHT22;526;51.392;12.448;2023-08-12T18:38:56;23.40;97.30
1075;DHT22;526;51.392;12.448;2023-08-12T18:41:21;23.40;97.30
1075;DHT22;526;51.392;12.448;2023-08-12T18:43:47;23.30;97.30
1075;DHT22;526;51.392;12.448;2023-08-12T18:46:13;23.30;97.30
1075;DHT22;526;51.392;12.448;2023-08-12T18:48:38;23.20;97.30
1075;DHT22;526;51.392;12.448;2023-08-12T18:51:05;23.20;97.30
1075;DHT22;526;51.392;12.448;2023-08-12T18:53:31;23.10;97.30
1075;DHT22;526;51.392;12.448;2023-08-12T18:55:56;23.10;97.30
1075;DHT22;526;51.392;12.448;2023-08-12T18:58:22;23.00;97.30
1075;DHT22;526;51.392;12.448;2023-08-12T19:00:48;23.00;97.30
1075;DHT22;526;51.392;12.448;2023-08-12T19:03:13;22.90;97.30
1075;DHT22;526;51.392;12.448;2023-08-12T19:05:39;22.80;97.30
1075;DHT22;526;51.392;12.448;2023-08-12T19:08:08;22.80;97.30
1075;DHT22;526;51.392;12.448;2023-08-12T19:10:36;22.80;97.30
1075;DHT22;526;51.392;12.448;2023-08-12T19:13:04;22.80;97.30
1075;DHT22;526;51.392;12.448;2023-08-12T19:15:29;22.70;97.30
1075;DHT22;526;51.392;12.448;2023-08-12T19:17:55;22.70;97.30
1075;DHT22;526;51.392;12.448;2023-08-12T19:20:22;22.60;97.30
1075;DHT22;526;51.392;12.448;2023-08-12T19:22:48;22.60;97.30
1075;DHT22;526;51.392;12.448;2023-08-12T19:25:13;22.60;97.30
1075;DHT22;526;51.392;12.448;2023-08-12T19:27:39;22.60;97.30
1075;DHT22;526;51.392;12.448;2023-08-12T19:30:05;22.50;97.30
1075;DHT22;526;51.392;12.448;2023-08-12T19:32:31;22.50;97.30
1075;DHT22;526;51.392;12.448;2023-08-12T19:34:56;22.50;97.30
1075;DHT22;526;51.392;12.448;2023-08-12T19:37:22;22.50;97.30
1075;DHT22;526;51.392;12.448;2023-08-12T19:39:47;22.50;97.30
1075;DHT22;526;51.392;12.448;2023-08-12T19:42:13;22.40;97.30
1075;DHT22;526;51.392;12.448;2023-08-12T19:44:38;22.40;97.30
1075;DHT22;526;51.392;12.448;2023-08-12T19:47:04;22.40;97.30
1075;DHT22;526;51.392;12.448;2023-08-12T19:49:29;22.40;97.30
1075;DHT22;526;51.392;12.448;2023-08-12T19:51:55;22.40;97.30
1075;DHT22;526;51.392;12.448;2023-08-12T19:54:21;22.40;97.30
1075;DHT22;526;51.392;12.448;2023-08-12T19:56:46;22.40;97.30
1075;DHT22;526;51.392;12.448;2023-08-12T19:59:12;22.40;97.30
1075;DHT22;526;51.392;12.448;2023-08-12T20:01:37;22.40;97.30
1075;DHT22;526;51.392;12.448;2023-08-12T20:04:03;22.40;97.30